sensor_id;sensor_type;location;lat;lon;timestamp;temperature;humidity
65470;DHT22;52067;50.710;14.492;2022-08-21T00:00:12;17.50;89.20
65470;DHT22;52067;50.710;14.492;2022-08-21T00:02:44;17.29;90.21
65470;DHT22;52067;50.710;14.492;2022-08-21T00:05:10;17.40;89.74
65470;DHT22;52067;50.710;14.492;2022-08-21T00:07:36;17.49;89.40
65470;DHT22;52067;50.710;14.492;2022-08-21T00:10:01;17.43;89.48
65470;DHT22;52067;50.710;14.492;2022-08-21T00:12:27;17.47;89.55
65470;DHT22;52067;50.710;14.492;2022-08-21T00:14:53;17.44;89.35
65470;DHT22;52067;50.710;14.492;2022-08-21T00:17:18;17.42;89.55
65470;DHT22;52067;50.710;14.492;2022-08-21T00:19:43;17.36;89.47
65470;DHT22;52067;50.710;14.492;2022-08-21T00:22:09;17.42;89.86
65470;DHT22;52067;50.710;14.492;2022-08-21T00:24:35;17.33;90.19
65470;DHT22;52067;50.710;14.492;2022-08-21T00:27:00;17.32;90.43
65470;DHT22;52067;50.710;14.492;2022-08-21T00:29:26;17.44;89.90
65470;DHT22;52067;50.710;14.492;2022-08-21T00:31:51;17.53;89.59
65470;DHT22;52067;50.710;14.492;2022-08-21T00:34:16;17.50;89.83
65470;DHT22;52067;50.710;14.492;2022-08-21T00:36:42;17.54;89.78
65470;DHT22;52067;50.710;14.492;2022-08-21T00:39:08;17.47;89.83
65470;DHT22;52067;50.710;14.492;2022-08-21T00:41:35;17.44;89.86
65470;DHT22;52067;50.710;14.492;2022-08-21T00:44:02;17.54;89.59
65470;DHT22;52067;50.710;14.492;2022-08-21T00:46:27;17.55;89.72
65470;DHT22;52067;50.710;14.492;2022-08-21T00:48:52;17.55;89.58
65470;DHT22;52067;50.710;14.492;2022-08-21T00:51:37;17.43;89.70
65470;DHT22;52067;50.710;14.492;2022-08-21T00:54:04;17.57;89.71
65470;DHT22;52067;50.710;14.492;2022-08-21T00:56:29;17.51;89.63
65470;DHT22;52067;50.710;14.492;2022-08-21T00:58:56;17.33;90.31
65470;DHT22;52067;50.710;14.492;2022-08-21T01:01:22;17.29;90.54
65470;DHT22;52067;50.710;14.492;2022-08-21T01:03:48;17.36;90.48
65470;DHT22;52067;50.710;14.492;2022-08-21T01:06:14;17.43;90.09
65470;DHT22;52067;50.710;14.492;2022-08-21T01:08:39;17.53;89.93
65470;DHT22;52067;50.710;14.492;2022-08-21T01:11:05;17.54;89.68
65470;DHT22;52067;50.710;14.492;2022-08-21T01:13:36;17.67;89.46
65470;DHT22;52067;50.710;14.492;2022-08-21T01:16:04;17.59;89.50
65470;DHT22;52067;50.710;14.492;2022-08-21T01:18:36;17.57;89.58
65470;DHT22;52067;50.710;14.492;2022-08-21T01:21:31;17.63;89.29
65470;DHT22;52067;50.710;14.492;2022-08-21T01:23:57;17.55;89.65
65470;DHT22;52067;50.710;14.492;2022-08-21T01:26:27;17.64;89.51
65470;DHT22;52067;50.710;14.492;2022-08-21T01:29:15;17.59;89.40
65470;DHT22;52067;50.710;14.492;2022-08-21T01:31:41;17.71;89.41
65470;DHT22;52067;50.710;14.492;2022-08-21T01:34:09;17.78;89.16
65470;DHT22;52067;50.710;14.492;2022-08-21T01:36:35;17.81;89.14
65470;DHT22;52067;50.710;14.492;2022-08-21T01:39:01;17.77;89.49
65470;DHT22;52067;50.710;14.492;2022-08-21T01:41:27;17.74;89.20
65470;DHT22;52067;50.710;14.492;2022-08-21T01:43:52;17.80;89.37
65470;DHT22;52067;50.710;14.492;2022-08-21T01:46:18;17.88;89.09
65470;DHT22;52067;50.710;14.492;2022-08-21T01:48:43;17.85;89.34
65470;DHT22;52067;50.710;14.492;2022-08-21T01:51:09;17.74;89.49
65470;DHT22;52067;50.710;14.492;2022-08-21T01:53:35;17.75;89.29
65470;DHT22;52067;50.710;14.492;2022-08-21T01:56:04;17.82;89.59
65470;DHT22;52067;50.710;14.492;2022-08-21T01:58:30;17.84;89.27
65470;DHT22;52067;50.710;14.492;2022-08-21T02:00:55;17.92;88.97
65470;DHT22;52067;50.710;14.492;2022-08-21T02:03:21;17.90;89.16
65470;DHT22;52067;50.710;14.492;2022-08-21T02:05:46;17.59;89.96
65470;DHT22;52067;50.710;14.492;2022-08-21T02:08:12;17.70;89.89
65470;DHT22;52067;50.710;14.492;2022-08-21T02:10:38;17.80;89.54
65470;DHT22;52067;50.710;14.492;2022-08-21T02:13:03;17.81;89.39
65470;DHT22;52067;50.710;14.492;2022-08-21T02:15:29;17.74;89.92
65470;DHT22;52067;50.710;14.492;2022-08-21T02:17:58;17.88;89.43
65470;DHT22;52067;50.710;14.492;2022-08-21T02:20:40;17.97;89.25
65470;DHT22;52067;50.710;14.492;2022-08-21T02:23:09;18.04;88.88
65470;DHT22;52067;50.710;14.492;2022-08-21T02:25:35;17.88;89.01
65470;DHT22;52067;50.710;14.492;2022-08-21T02:28:07;18.01;89.01
65470;DHT22;52067;50.710;14.492;2022-08-21T02:30:35;17.98;88.76
65470;DHT22;52067;50.710;14.492;2022-08-21T02:33:03;18.01;88.60
65470;DHT22;52067;50.710;14.492;2022-08-21T02:35:29;18.00;88.36
65470;DHT22;52067;50.710;14.492;2022-08-21T02:38:04;17.94;88.83
65470;DHT22;52067;50.710;14.492;2022-08-21T02:40:32;17.81;89.32
65470;DHT22;52067;50.710;14.492;2022-08-21T02:42:58;17.98;89.01
65470;DHT22;52067;50.710;14.492;2022-08-21T02:45:24;17.90;88.19
65470;DHT22;52067;50.710;14.492;2022-08-21T02:47:54;17.84;87.24
65470;DHT22;52067;50.710;14.492;2022-08-21T02:50:25;17.77;88.43
65470;DHT22;52067;50.710;14.492;2022-08-21T02:52:51;17.92;88.18
65470;DHT22;52067;50.710;14.492;2022-08-21T02:55:18;17.80;88.26
65470;DHT22;52067;50.710;14.492;2022-08-21T02:57:44;17.55;88.23
65470;DHT22;52067;50.710;14.492;2022-08-21T03:00:11;17.66;87.91
65470;DHT22;52067;50.710;14.492;2022-08-21T03:02:38;17.73;87.58
65470;DHT22;52067;50.710;14.492;2022-08-21T03:05:04;17.61;87.34
65470;DHT22;52067;50.710;14.492;2022-08-21T03:07:30;17.67;87.89
65470;DHT22;52067;50.710;14.492;2022-08-21T03:09:55;17.70;87.86
65470;DHT22;52067;50.710;14.492;2022-08-21T03:12:21;17.77;88.01
65470;DHT22;52067;50.710;14.492;2022-08-21T03:14:47;17.77;87.40
65470;DHT22;52067;50.710;14.492;2022-08-21T03:17:12;17.77;87.21
65470;DHT22;52067;50.710;14.492;2022-08-21T03:19:37;17.73;87.98
65470;DHT22;52067;50.710;14.492;2022-08-21T03:22:03;17.66;88.67
65470;DHT22;52067;50.710;14.492;2022-08-21T03:24:29;17.75;87.89
65470;DHT22;52067;50.710;14.492;2022-08-21T03:26:54;17.74;88.21
65470;DHT22;52067;50.710;14.492;2022-08-21T03:29:19;17.74;88.46
65470;DHT22;52067;50.710;14.492;2022-08-21T03:31:45;17.80;88.03
65470;DHT22;52067;50.710;14.492;2022-08-21T03:34:10;17.84;88.00
65470;DHT22;52067;50.710;14.492;2022-08-21T03:36:35;17.59;88.88
65470;DHT22;52067;50.710;14.492;2022-08-21T03:39:01;17.75;88.50
65470;DHT22;52067;50.710;14.492;2022-08-21T03:41:26;17.84;88.37
65470;DHT22;52067;50.710;14.492;2022-08-21T03:43:52;17.88;87.47
65470;DHT22;52067;50.710;14.492;2022-08-21T03:46:17;17.91;87.77
65470;DHT22;52067;50.710;14.492;2022-08-21T03:48:43;17.94;87.42
65470;DHT22;52067;50.710;14.492;2022-08-21T03:51:09;17.46;88.07
65470;DHT22;52067;50.710;14.492;2022-08-21T03:53:35;17.70;87.95
65470;DHT22;52067;50.710;14.492;2022-08-21T03:56:01;17.80;87.72
65470;DHT22;52067;50.710;14.492;2022-08-21T03:58:27;17.85;87.92
65470;DHT22;52067;50.710;14.492;2022-08-21T04:01:00;17.82;87.68
65470;DHT22;52067;50.710;14.492;2022-08-21T04:03:26;17.85;87.39
65470;DHT22;52067;50.710;14.492;2022-08-21T04:05:55;17.78;87.22
65470;DHT22;52067;50.710;14.492;2022-08-21T04:08:21;17.87;87.36
65470;DHT22;52067;50.710;14.492;2022-08-21T04:10:49;17.73;87.30
65470;DHT22;52067;50.710;14.492;2022-08-21T04:13:15;17.70;87.28
65470;DHT22;52067;50.710;14.492;2022-08-21T04:15:41;17.66;88.01
65470;DHT22;52067;50.710;14.492;2022-08-21T04:18:07;17.75;87.01
65470;DHT22;52067;50.710;14.492;2022-08-21T04:20:34;17.64;87.20
65470;DHT22;52067;50.710;14.492;2022-08-21T04:22:59;17.71;87.74
65470;DHT22;52067;50.710;14.492;2022-08-21T04:25:25;17.71;86.80
65470;DHT22;52067;50.710;14.492;2022-08-21T04:27:51;17.73;87.01
65470;DHT22;52067;50.710;14.492;2022-08-21T04:30:16;17.46;87.88
65470;DHT22;52067;50.710;14.492;2022-08-21T04:32:46;17.66;87.57
65470;DHT22;52067;50.710;14.492;2022-08-21T04:35:13;17.70;87.10
65470;DHT22;52067;50.710;14.492;2022-08-21T04:37:39;17.69;87.44
65470;DHT22;52067;50.710;14.492;2022-08-21T04:40:07;17.47;88.05
65470;DHT22;52067;50.710;14.492;2022-08-21T04:42:41;17.34;88.79
65470;DHT22;52067;50.710;14.492;2022-08-21T04:45:08;17.42;88.41
65470;DHT22;52067;50.710;14.492;2022-08-21T04:47:34;17.46;88.31
65470;DHT22;52067;50.710;14.492;2022-08-21T04:49:59;17.51;87.87
65470;DHT22;52067;50.710;14.492;2022-08-21T04:52:25;17.39;88.63
65470;DHT22;52067;50.710;14.492;2022-08-21T04:54:51;17.51;87.79
65470;DHT22;52067;50.710;14.492;2022-08-21T04:57:17;17.54;87.01
65470;DHT22;52067;50.710;14.492;2022-08-21T04:59:48;17.53;86.86
65470;DHT22;52067;50.710;14.492;2022-08-21T05:02:15;17.54;86.60
65470;DHT22;52067;50.710;14.492;2022-08-21T05:04:46;17.59;86.33
65470;DHT22;52067;50.710;14.492;2022-08-21T05:07:16;17.37;86.69
65470;DHT22;52067;50.710;14.492;2022-08-21T05:09:42;17.43;87.05
65470;DHT22;52067;50.710;14.492;2022-08-21T05:12:09;17.33;87.89
65470;DHT22;52067;50.710;14.492;2022-08-21T05:14:34;17.40;86.95
65470;DHT22;52067;50.710;14.492;2022-08-21T05:17:00;17.54;86.97
65470;DHT22;52067;50.710;14.492;2022-08-21T05:19:25;17.39;87.06
65470;DHT22;52067;50.710;14.492;2022-08-21T05:21:51;17.49;88.00
65470;DHT22;52067;50.710;14.492;2022-08-21T05:24:17;17.47;87.28
65470;DHT22;52067;50.710;14.492;2022-08-21T05:26:43;17.42;87.82
65470;DHT22;52067;50.710;14.492;2022-08-21T05:29:08;17.23;87.60
65470;DHT22;52067;50.710;14.492;2022-08-21T05:31:34;17.13;89.12
65470;DHT22;52067;50.710;14.492;2022-08-21T05:33:59;17.30;88.81
65470;DHT22;52067;50.710;14.492;2022-08-21T05:36:25;17.26;88.83
65470;DHT22;52067;50.710;14.492;2022-08-21T05:38:50;16.96;89.34
65470;DHT22;52067;50.710;14.492;2022-08-21T05:41:16;17.08;89.51
65470;DHT22;52067;50.710;14.492;2022-08-21T05:43:41;16.85;89.91
65470;DHT22;52067;50.710;14.492;2022-08-21T05:46:07;17.01;88.68
65470;DHT22;52067;50.710;14.492;2022-08-21T05:48:34;17.42;88.68
65470;DHT22;52067;50.710;14.492;2022-08-21T05:51:09;17.49;87.55
65470;DHT22;52067;50.710;14.492;2022-08-21T05:53:35;17.54;87.74
65470;DHT22;52067;50.710;14.492;2022-08-21T05:56:01;17.75;86.96
65470;DHT22;52067;50.710;14.492;2022-08-21T05:58:30;17.64;87.27
65470;DHT22;52067;50.710;14.492;2022-08-21T06:00:56;17.85;85.73
65470;DHT22;52067;50.710;14.492;2022-08-21T06:03:27;17.82;85.33
65470;DHT22;52067;50.710;14.492;2022-08-21T06:05:53;18.00;85.87
65470;DHT22;52067;50.710;14.492;2022-08-21T06:08:21;18.11;86.04
65470;DHT22;52067;50.710;14.492;2022-08-21T06:10:48;18.01;85.47
65470;DHT22;52067;50.710;14.492;2022-08-21T06:13:15;18.18;85.48
65470;DHT22;52067;50.710;14.492;2022-08-21T06:15:42;18.25;84.62
65470;DHT22;52067;50.710;14.492;2022-08-21T06:18:07;18.35;84.43
65470;DHT22;52067;50.710;14.492;2022-08-21T06:20:33;18.38;84.47
65470;DHT22;52067;50.710;14.492;2022-08-21T06:22:59;18.35;84.19
65470;DHT22;52067;50.710;14.492;2022-08-21T06:25:24;18.29;83.96
65470;DHT22;52067;50.710;14.492;2022-08-21T06:27:50;18.40;84.14
65470;DHT22;52067;50.710;14.492;2022-08-21T06:30:16;18.33;84.34
65470;DHT22;52067;50.710;14.492;2022-08-21T06:32:41;18.36;85.59
65470;DHT22;52067;50.710;14.492;2022-08-21T06:35:07;18.42;84.77
65470;DHT22;52067;50.710;14.492;2022-08-21T06:37:33;18.43;85.02
65470;DHT22;52067;50.710;14.492;2022-08-21T06:39:58;18.36;85.37
65470;DHT22;52067;50.710;14.492;2022-08-21T06:42:24;18.13;86.16
65470;DHT22;52067;50.710;14.492;2022-08-21T06:44:49;17.91;87.71
65470;DHT22;52067;50.710;14.492;2022-08-21T06:47:15;18.31;86.05
65470;DHT22;52067;50.710;14.492;2022-08-21T06:49:40;17.85;87.36
65470;DHT22;52067;50.710;14.492;2022-08-21T06:52:11;18.21;85.75
65470;DHT22;52067;50.710;14.492;2022-08-21T06:54:37;18.13;86.58
65470;DHT22;52067;50.710;14.492;2022-08-21T06:57:02;18.09;86.05
65470;DHT22;52067;50.710;14.492;2022-08-21T06:59:28;18.21;85.46
65470;DHT22;52067;50.710;14.492;2022-08-21T07:01:53;18.29;85.58
65470;DHT22;52067;50.710;14.492;2022-08-21T07:04:18;18.56;84.99
65470;DHT22;52067;50.710;14.492;2022-08-21T07:06:45;18.39;85.56
65470;DHT22;52067;50.710;14.492;2022-08-21T07:09:11;18.02;86.33
65470;DHT22;52067;50.710;14.492;2022-08-21T07:11:37;17.94;87.11
65470;DHT22;52067;50.710;14.492;2022-08-21T07:14:03;17.97;86.84
65470;DHT22;52067;50.710;14.492;2022-08-21T07:16:28;18.19;85.49
65470;DHT22;52067;50.710;14.492;2022-08-21T07:18:54;18.45;85.91
65470;DHT22;52067;50.710;14.492;2022-08-21T07:21:20;18.60;85.95
65470;DHT22;52067;50.710;14.492;2022-08-21T07:23:48;18.84;85.59
65470;DHT22;52067;50.710;14.492;2022-08-21T07:26:16;19.12;83.76
65470;DHT22;52067;50.710;14.492;2022-08-21T07:28:41;19.06;83.92
65470;DHT22;52067;50.710;14.492;2022-08-21T07:31:09;19.24;83.79
65470;DHT22;52067;50.710;14.492;2022-08-21T07:33:35;19.41;83.48
65470;DHT22;52067;50.710;14.492;2022-08-21T07:36:01;19.45;83.02
65470;DHT22;52067;50.710;14.492;2022-08-21T07:38:27;19.44;81.77
65470;DHT22;52067;50.710;14.492;2022-08-21T07:40:55;19.75;82.30
65470;DHT22;52067;50.710;14.492;2022-08-21T07:43:21;19.97;81.00
65470;DHT22;52067;50.710;14.492;2022-08-21T07:45:47;20.16;81.91
65470;DHT22;52067;50.710;14.492;2022-08-21T07:48:12;19.79;80.35
65470;DHT22;52067;50.710;14.492;2022-08-21T07:50:38;19.96;81.37
65470;DHT22;52067;50.710;14.492;2022-08-21T07:53:04;20.43;80.90
65470;DHT22;52067;50.710;14.492;2022-08-21T07:55:30;19.73;82.37
65470;DHT22;52067;50.710;14.492;2022-08-21T07:57:55;19.73;82.08
65470;DHT22;52067;50.710;14.492;2022-08-21T08:00:24;19.68;81.90
65470;DHT22;52067;50.710;14.492;2022-08-21T08:02:52;19.75;82.49
65470;DHT22;52067;50.710;14.492;2022-08-21T08:05:21;19.55;83.10
65470;DHT22;52067;50.710;14.492;2022-08-21T08:07:47;19.34;83.71
65470;DHT22;52067;50.710;14.492;2022-08-21T08:10:12;19.80;83.03
65470;DHT22;52067;50.710;14.492;2022-08-21T08:12:40;20.14;81.42
65470;DHT22;52067;50.710;14.492;2022-08-21T08:15:08;19.93;81.70
65470;DHT22;52067;50.710;14.492;2022-08-21T08:17:33;19.90;82.76
65470;DHT22;52067;50.710;14.492;2022-08-21T08:19:59;20.17;80.45
65470;DHT22;52067;50.710;14.492;2022-08-21T08:22:27;20.38;79.26
65470;DHT22;52067;50.710;14.492;2022-08-21T08:24:53;20.43;80.62
65470;DHT22;52067;50.710;14.492;2022-08-21T08:27:20;20.20;81.04
65470;DHT22;52067;50.710;14.492;2022-08-21T08:29:45;19.87;83.13
65470;DHT22;52067;50.710;14.492;2022-08-21T08:32:11;20.38;80.00
65470;DHT22;52067;50.710;14.492;2022-08-21T08:34:38;20.17;81.88
65470;DHT22;52067;50.710;14.492;2022-08-21T08:37:05;20.45;79.41
65470;DHT22;52067;50.710;14.492;2022-08-21T08:39:30;20.55;81.39
65470;DHT22;52067;50.710;14.492;2022-08-21T08:42:01;20.31;78.97
65470;DHT22;52067;50.710;14.492;2022-08-21T08:44:30;20.16;79.11
65470;DHT22;52067;50.710;14.492;2022-08-21T08:46:56;19.98;79.95
65470;DHT22;52067;50.710;14.492;2022-08-21T08:49:46;20.14;79.89
65470;DHT22;52067;50.710;14.492;2022-08-21T08:52:28;20.37;77.55
65470;DHT22;52067;50.710;14.492;2022-08-21T08:57:44;20.96;77.56
65470;DHT22;52067;50.710;14.492;2022-08-21T09:00:12;20.88;78.78
65470;DHT22;52067;50.710;14.492;2022-08-21T09:02:39;20.72;79.17
65470;DHT22;52067;50.710;14.492;2022-08-21T09:05:06;21.14;76.31
65470;DHT22;52067;50.710;14.492;2022-08-21T09:07:47;21.03;76.35
65470;DHT22;52067;50.710;14.492;2022-08-21T09:10:20;21.05;74.31
65470;DHT22;52067;50.710;14.492;2022-08-21T09:13:01;20.44;74.85
65470;DHT22;52067;50.710;14.492;2022-08-21T09:15:54;19.73;78.03
65470;DHT22;52067;50.710;14.492;2022-08-21T09:24:01;20.10;77.35
65470;DHT22;52067;50.710;14.492;2022-08-21T09:26:54;19.96;78.52
65470;DHT22;52067;50.710;14.492;2022-08-21T09:29:24;20.18;74.15
65470;DHT22;52067;50.710;14.492;2022-08-21T09:31:51;20.54;75.36
65470;DHT22;52067;50.710;14.492;2022-08-21T09:34:25;20.18;75.71
65470;DHT22;52067;50.710;14.492;2022-08-21T09:36:51;20.18;77.44
65470;DHT22;52067;50.710;14.492;2022-08-21T09:39:25;20.67;77.03
65470;DHT22;52067;50.710;14.492;2022-08-21T09:41:59;20.82;76.70
65470;DHT22;52067;50.710;14.492;2022-08-21T09:44:39;20.65;74.16
65470;DHT22;52067;50.710;14.492;2022-08-21T09:47:10;21.03;74.43
65470;DHT22;52067;50.710;14.492;2022-08-21T09:49:40;20.95;74.72
65470;DHT22;52067;50.710;14.492;2022-08-21T09:52:41;21.44;73.18
65470;DHT22;52067;50.710;14.492;2022-08-21T09:55:15;21.42;71.49
65470;DHT22;52067;50.710;14.492;2022-08-21T09:58:01;21.64;70.45
65470;DHT22;52067;50.710;14.492;2022-08-21T10:00:32;21.49;68.40
65470;DHT22;52067;50.710;14.492;2022-08-21T10:08:44;21.34;64.80
65470;DHT22;52067;50.710;14.492;2022-08-21T10:11:12;21.27;65.50
65470;DHT22;52067;50.710;14.492;2022-08-21T10:13:53;21.07;68.03
65470;DHT22;52067;50.710;14.492;2022-08-21T10:24:31;21.74;63.07
65470;DHT22;52067;50.710;14.492;2022-08-21T10:29:50;21.34;64.48
65470;DHT22;52067;50.710;14.492;2022-08-21T10:35:18;20.68;68.31
65470;DHT22;52067;50.710;14.492;2022-08-21T10:40:42;20.75;67.75
65470;DHT22;52067;50.710;14.492;2022-08-21T10:57:50;20.78;63.15
65470;DHT22;52067;50.710;14.492;2022-08-21T11:00:22;21.61;61.52
65470;DHT22;52067;50.710;14.492;2022-08-21T11:05:42;21.80;58.68
65470;DHT22;52067;50.710;14.492;2022-08-21T11:08:22;22.15;61.92
65470;DHT22;52067;50.710;14.492;2022-08-21T11:10:53;21.95;61.57
65470;DHT22;52067;50.710;14.492;2022-08-21T11:16:09;22.35;56.78
65470;DHT22;52067;50.710;14.492;2022-08-21T11:18:43;21.90;58.35
65470;DHT22;52067;50.710;14.492;2022-08-21T11:21:37;22.11;62.29
65470;DHT22;52067;50.710;14.492;2022-08-21T11:29:36;23.24;54.75
65470;DHT22;52067;50.710;14.492;2022-08-21T11:32:29;22.94;57.21
65470;DHT22;52067;50.710;14.492;2022-08-21T11:44:29;23.96;53.34
65470;DHT22;52067;50.710;14.492;2022-08-21T12:00:25;24.76;50.53
65470;DHT22;52067;50.710;14.492;2022-08-21T12:02:58;23.62;54.66
65470;DHT22;52067;50.710;14.492;2022-08-21T12:05:33;23.90;53.49
65470;DHT22;52067;50.710;14.492;2022-08-21T12:08:27;24.02;51.32
65470;DHT22;52067;50.710;14.492;2022-08-21T12:13:32;22.80;54.46
65470;DHT22;52067;50.710;14.492;2022-08-21T12:16:27;22.73;54.49
65470;DHT22;52067;50.710;14.492;2022-08-21T12:19:04;22.42;52.21
65470;DHT22;52067;50.710;14.492;2022-08-21T12:21:30;22.01;55.21
65470;DHT22;52067;50.710;14.492;2022-08-21T12:24:15;22.23;56.07
65470;DHT22;52067;50.710;14.492;2022-08-21T12:26:54;22.52;55.81
65470;DHT22;52067;50.710;14.492;2022-08-21T12:29:24;22.78;52.65
65470;DHT22;52067;50.710;14.492;2022-08-21T12:31:54;22.33;53.86
65470;DHT22;52067;50.710;14.492;2022-08-21T12:34:23;22.46;54.98
65470;DHT22;52067;50.710;14.492;2022-08-21T12:36:58;22.91;55.49
65470;DHT22;52067;50.710;14.492;2022-08-21T12:39:27;21.94;58.52
65470;DHT22;52067;50.710;14.492;2022-08-21T12:42:00;22.52;56.27
65470;DHT22;52067;50.710;14.492;2022-08-21T12:44:35;22.90;55.40
65470;DHT22;52067;50.710;14.492;2022-08-21T12:47:06;22.52;53.23
65470;DHT22;52067;50.710;14.492;2022-08-21T12:49:37;22.61;50.80
65470;DHT22;52067;50.710;14.492;2022-08-21T12:52:14;22.43;55.11
65470;DHT22;52067;50.710;14.492;2022-08-21T12:54:42;22.45;54.11
65470;DHT22;52067;50.710;14.492;2022-08-21T12:57:16;22.01;55.61
65470;DHT22;52067;50.710;14.492;2022-08-21T12:59:43;22.40;52.02
65470;DHT22;52067;50.710;14.492;2022-08-21T13:02:20;22.86;52.37
65470;DHT22;52067;50.710;14.492;2022-08-21T13:04:47;23.12;51.26
65470;DHT22;52067;50.710;14.492;2022-08-21T13:07:21;23.28;51.51
65470;DHT22;52067;50.710;14.492;2022-08-21T13:09:56;24.09;49.03
65470;DHT22;52067;50.710;14.492;2022-08-21T13:12:23;24.07;48.25
65470;DHT22;52067;50.710;14.492;2022-08-21T13:14:51;23.83;49.98
65470;DHT22;52067;50.710;14.492;2022-08-21T13:17:19;23.92;48.01
65470;DHT22;52067;50.710;14.492;2022-08-21T13:19:59;23.76;48.32
65470;DHT22;52067;50.710;14.492;2022-08-21T13:22:26;22.39;50.37
65470;DHT22;52067;50.710;14.492;2022-08-21T13:24:51;23.38;50.01
65470;DHT22;52067;50.710;14.492;2022-08-21T13:27:28;23.62;46.29
65470;DHT22;52067;50.710;14.492;2022-08-21T13:30:21;22.90;50.89
65470;DHT22;52067;50.710;14.492;2022-08-21T13:32:50;22.29;51.28
65470;DHT22;52067;50.710;14.492;2022-08-21T13:35:20;23.28;48.98
65470;DHT22;52067;50.710;14.492;2022-08-21T13:37:48;23.22;48.20
65470;DHT22;52067;50.710;14.492;2022-08-21T13:40:23;22.57;52.69
65470;DHT22;52067;50.710;14.492;2022-08-21T13:42:50;23.15;49.51
65470;DHT22;52067;50.710;14.492;2022-08-21T13:45:22;22.53;51.31
65470;DHT22;52067;50.710;14.492;2022-08-21T13:47:48;23.12;49.37
65470;DHT22;52067;50.710;14.492;2022-08-21T13:50:15;23.32;47.33
65470;DHT22;52067;50.710;14.492;2022-08-21T13:52:58;23.51;47.96
65470;DHT22;52067;50.710;14.492;2022-08-21T13:55:25;23.86;46.74
65470;DHT22;52067;50.710;14.492;2022-08-21T13:57:59;23.80;45.48
65470;DHT22;52067;50.710;14.492;2022-08-21T14:00:28;23.29;44.48
65470;DHT22;52067;50.710;14.492;2022-08-21T14:03:00;23.63;44.92
65470;DHT22;52067;50.710;14.492;2022-08-21T14:05:31;24.14;45.29
65470;DHT22;52067;50.710;14.492;2022-08-21T14:08:21;24.89;43.15
65470;DHT22;52067;50.710;14.492;2022-08-21T14:10:50;25.24;42.22
65470;DHT22;52067;50.710;14.492;2022-08-21T14:13:41;25.49;43.17
65470;DHT22;52067;50.710;14.492;2022-08-21T14:16:17;25.34;41.26
65470;DHT22;52067;50.710;14.492;2022-08-21T14:18:48;26.01;40.56
65470;DHT22;52067;50.710;14.492;2022-08-21T14:21:24;25.98;40.07
65470;DHT22;52067;50.710;14.492;2022-08-21T14:26:52;26.66;39.36
65470;DHT22;52067;50.710;14.492;2022-08-21T14:29:19;26.84;38.81
65470;DHT22;52067;50.710;14.492;2022-08-21T14:31:51;28.25;35.04
65470;DHT22;52067;50.710;14.492;2022-08-21T14:34:17;26.37;42.86
65470;DHT22;52067;50.710;14.492;2022-08-21T14:36:43;25.64;38.83
65470;DHT22;52067;50.710;14.492;2022-08-21T14:39:09;25.22;41.46
65470;DHT22;52067;50.710;14.492;2022-08-21T14:41:34;24.78;40.30
65470;DHT22;52067;50.710;14.492;2022-08-21T14:44:01;24.16;42.63
65470;DHT22;52067;50.710;14.492;2022-08-21T14:46:28;24.24;42.63
65470;DHT22;52067;50.710;14.492;2022-08-21T14:48:55;24.28;43.48
65470;DHT22;52067;50.710;14.492;2022-08-21T14:51:21;24.68;43.51
65470;DHT22;52067;50.710;14.492;2022-08-21T14:53:47;24.95;42.64
65470;DHT22;52067;50.710;14.492;2022-08-21T14:56:13;24.69;43.19
65470;DHT22;52067;50.710;14.492;2022-08-21T14:58:42;24.68;43.86
65470;DHT22;52067;50.710;14.492;2022-08-21T15:01:10;25.15;43.38
65470;DHT22;52067;50.710;14.492;2022-08-21T15:03:36;25.87;44.94
65470;DHT22;52067;50.710;14.492;2022-08-21T15:06:03;26.08;40.50
65470;DHT22;52067;50.710;14.492;2022-08-21T15:08:29;26.64;38.90
65470;DHT22;52067;50.710;14.492;2022-08-21T15:10:55;26.11;41.54
65470;DHT22;52067;50.710;14.492;2022-08-21T15:13:21;26.11;41.12
65470;DHT22;52067;50.710;14.492;2022-08-21T15:15:49;28.14;37.62
65470;DHT22;52067;50.710;14.492;2022-08-21T15:18:15;27.48;39.81
65470;DHT22;52067;50.710;14.492;2022-08-21T15:20:40;25.23;41.42
65470;DHT22;52067;50.710;14.492;2022-08-21T15:23:07;26.19;39.91
65470;DHT22;52067;50.710;14.492;2022-08-21T15:25:34;27.17;39.48
65470;DHT22;52067;50.710;14.492;2022-08-21T15:28:00;26.12;39.23
65470;DHT22;52067;50.710;14.492;2022-08-21T15:30:36;25.98;40.77
65470;DHT22;52067;50.710;14.492;2022-08-21T15:33:02;25.36;41.16
65470;DHT22;52067;50.710;14.492;2022-08-21T15:35:27;25.15;40.52
65470;DHT22;52067;50.710;14.492;2022-08-21T15:37:53;24.72;41.23
65470;DHT22;52067;50.710;14.492;2022-08-21T15:40:18;24.09;42.73
65470;DHT22;52067;50.710;14.492;2022-08-21T15:42:44;23.67;43.86
65470;DHT22;52067;50.710;14.492;2022-08-21T15:45:11;24.34;42.51
65470;DHT22;52067;50.710;14.492;2022-08-21T15:47:38;24.47;42.25
65470;DHT22;52067;50.710;14.492;2022-08-21T15:50:07;24.21;42.57
65470;DHT22;52067;50.710;14.492;2022-08-21T15:52:33;23.80;42.58
65470;DHT22;52067;50.710;14.492;2022-08-21T15:54:59;23.82;43.88
65470;DHT22;52067;50.710;14.492;2022-08-21T15:57:25;23.99;40.78
65470;DHT22;52067;50.710;14.492;2022-08-21T15:59:53;23.94;40.69
65470;DHT22;52067;50.710;14.492;2022-08-21T16:02:28;23.70;40.28
65470;DHT22;52067;50.710;14.492;2022-08-21T16:04:56;23.11;42.08
65470;DHT22;52067;50.710;14.492;2022-08-21T16:07:21;23.08;41.06
65470;DHT22;52067;50.710;14.492;2022-08-21T16:09:47;23.34;40.94
65470;DHT22;52067;50.710;14.492;2022-08-21T16:12:22;23.32;42.37
65470;DHT22;52067;50.710;14.492;2022-08-21T16:14:48;23.73;41.61
65470;DHT22;52067;50.710;14.492;2022-08-21T16:17:15;23.55;40.81
65470;DHT22;52067;50.710;14.492;2022-08-21T16:19:41;23.89;39.69
65470;DHT22;52067;50.710;14.492;2022-08-21T16:22:06;23.28;40.74
65470;DHT22;52067;50.710;14.492;2022-08-21T16:24:32;23.15;41.02
65470;DHT22;52067;50.710;14.492;2022-08-21T16:26:57;22.46;42.25
65470;DHT22;52067;50.710;14.492;2022-08-21T16:29:23;22.59;42.06
65470;DHT22;52067;50.710;14.492;2022-08-21T16:31:48;22.76;41.47
65470;DHT22;52067;50.710;14.492;2022-08-21T16:34:17;22.48;44.01
65470;DHT22;52067;50.710;14.492;2022-08-21T16:36:42;22.86;44.91
65470;DHT22;52067;50.710;14.492;2022-08-21T16:39:10;22.76;42.72
65470;DHT22;52067;50.710;14.492;2022-08-21T16:41:36;22.83;44.36
65470;DHT22;52067;50.710;14.492;2022-08-21T16:44:03;22.73;47.33
65470;DHT22;52067;50.710;14.492;2022-08-21T16:46:32;22.29;46.13
65470;DHT22;52067;50.710;14.492;2022-08-21T16:48:58;22.40;45.38